sensor_id;sensor_type;location;lat;lon;timestamp;P1;durP1;ratioP1;P2;durP2;ratioP2
30466;SDS011;17258;52.560;13.046;2023-07-30T00:09:51;1.95;;;1.30;;
30466;SDS011;17258;52.560;13.046;2023-07-30T00:19:52;2.27;;;1.70;;
30466;SDS011;17258;52.560;13.046;2023-07-30T00:29:53;1.60;;;1.10;;
30466;SDS011;17258;52.560;13.046;2023-07-30T00:39:53;1.30;;;1.20;;
30466;SDS011;17258;52.560;13.046;2023-07-30T00:49:54;1.23;;;1.17;;
30466;SDS011;17258;52.560;13.046;2023-07-30T00:59:55;3.03;;;1.52;;
30466;SDS011;17258;52.560;13.046;2023-07-30T01:09:56;2.17;;;1.25;;
30466;SDS011;17258;52.560;13.046;2023-07-30T01:19:57;1.33;;;1.30;;
30466;SDS011;17258;52.560;13.046;2023-07-30T01:30:14;1.23;;;1.13;;
30466;SDS011;17258;52.560;13.046;2023-07-30T01:40:26;1.47;;;1.37;;
30466;SDS011;17258;52.560;13.046;2023-07-30T01:50:27;1.27;;;1.23;;
30466;SDS011;17258;52.560;13.046;2023-07-30T02:00:28;1.30;;;1.23;;
30466;SDS011;17258;52.560;13.046;2023-07-30T02:10:28;1.63;;;1.53;;
30466;SDS011;17258;52.560;13.046;2023-07-30T02:20:29;2.50;;;1.43;;
30466;SDS011;17258;52.560;13.046;2023-07-30T02:30:29;1.50;;;1.40;;
30466;SDS011;17258;52.560;13.046;2023-07-30T02:40:30;1.37;;;1.30;;
30466;SDS011;17258;52.560;13.046;2023-07-30T02:50:31;1.70;;;1.60;;
30466;SDS011;17258;52.560;13.046;2023-07-30T03:00:32;1.27;;;1.17;;
30466;SDS011;17258;52.560;13.046;2023-07-30T03:10:32;1.00;;;1.00;;
30466;SDS011;17258;52.560;13.046;2023-07-30T03:20:33;1.80;;;1.70;;
30466;SDS011;17258;52.560;13.046;2023-07-30T03:30:34;1.57;;;1.40;;
30466;SDS011;17258;52.560;13.046;2023-07-30T03:40:34;2.53;;;1.47;;
30466;SDS011;17258;52.560;13.046;2023-07-30T03:50:35;1.10;;;1.10;;
30466;SDS011;17258;52.560;13.046;2023-07-30T04:00:36;2.67;;;1.20;;
30466;SDS011;17258;52.560;13.046;2023-07-30T04:10:36;1.65;;;1.33;;
30466;SDS011;17258;52.560;13.046;2023-07-30T04:20:37;2.13;;;2.03;;
30466;SDS011;17258;52.560;13.046;2023-07-30T04:30:38;2.03;;;1.93;;
30466;SDS011;17258;52.560;13.046;2023-07-30T04:40:39;1.87;;;1.73;;
30466;SDS011;17258;52.560;13.046;2023-07-30T04:50:39;1.63;;;1.52;;
30466;SDS011;17258;52.560;13.046;2023-07-30T05:00:43;2.47;;;1.73;;
30466;SDS011;17258;52.560;13.046;2023-07-30T05:10:43;1.70;;;1.60;;
30466;SDS011;17258;52.560;13.046;2023-07-30T05:20:47;1.77;;;1.67;;
30466;SDS011;17258;52.560;13.046;2023-07-30T05:30:48;4.82;;;1.85;;
30466;SDS011;17258;52.560;13.046;2023-07-30T05:40:48;2.57;;;2.47;;
30466;SDS011;17258;52.560;13.046;2023-07-30T05:50:49;2.47;;;2.37;;
30466;SDS011;17258;52.560;13.046;2023-07-30T06:00:49;10.60;;;10.00;;
30466;SDS011;17258;52.560;13.046;2023-07-30T06:10:50;10.17;;;9.67;;
30466;SDS011;17258;52.560;13.046;2023-07-30T06:20:51;2.10;;;2.00;;
30466;SDS011;17258;52.560;13.046;2023-07-30T06:30:51;6.27;;;5.60;;
30466;SDS011;17258;52.560;13.046;2023-07-30T06:40:52;6.07;;;5.77;;
30466;SDS011;17258;52.560;13.046;2023-07-30T06:50:53;4.40;;;4.10;;
30466;SDS011;17258;52.560;13.046;2023-07-30T07:00:53;5.33;;;4.83;;
30466;SDS011;17258;52.560;13.046;2023-07-30T07:10:54;6.93;;;6.53;;
30466;SDS011;17258;52.560;13.046;2023-07-30T07:20:55;2.97;;;2.87;;
30466;SDS011;17258;52.560;13.046;2023-07-30T07:30:55;5.47;;;5.07;;
30466;SDS011;17258;52.560;13.046;2023-07-30T07:40:56;10.07;;;9.37;;
30466;SDS011;17258;52.560;13.046;2023-07-30T07:50:56;7.50;;;7.10;;
30466;SDS011;17258;52.560;13.046;2023-07-30T08:00:57;13.13;;;12.23;;
30466;SDS011;17258;52.560;13.046;2023-07-30T08:11:04;13.10;;;12.30;;
30466;SDS011;17258;52.560;13.046;2023-07-30T08:21:08;12.85;;;12.15;;
30466;SDS011;17258;52.560;13.046;2023-07-30T08:31:09;9.30;;;8.70;;
30466;SDS011;17258;52.560;13.046;2023-07-30T08:41:09;13.33;;;12.53;;
30466;SDS011;17258;52.560;13.046;2023-07-30T08:51:11;13.30;;;12.60;;
30466;SDS011;17258;52.560;13.046;2023-07-30T09:01:12;13.48;;;12.77;;
30466;SDS011;17258;52.560;13.046;2023-07-30T09:11:16;13.60;;;12.90;;
30466;SDS011;17258;52.560;13.046;2023-07-30T09:21:17;11.52;;;10.93;;
30466;SDS011;17258;52.560;13.046;2023-07-30T09:31:18;14.70;;;13.90;;
30466;SDS011;17258;52.560;13.046;2023-07-30T09:41:19;14.13;;;13.38;;
30466;SDS011;17258;52.560;13.046;2023-07-30T09:51:19;14.48;;;13.68;;
30466;SDS011;17258;52.560;13.046;2023-07-30T10:01:20;15.15;;;14.20;;
30466;SDS011;17258;52.560;13.046;2023-07-30T10:11:26;14.52;;;13.73;;
30466;SDS011;17258;52.560;13.046;2023-07-30T10:21:28;15.63;;;14.70;;
30466;SDS011;17258;52.560;13.046;2023-07-30T10:31:38;16.23;;;15.23;;
30466;SDS011;17258;52.560;13.046;2023-07-30T10:41:42;16.42;;;15.43;;
30466;SDS011;17258;52.560;13.046;2023-07-30T10:51:48;16.67;;;15.43;;
30466;SDS011;17258;52.560;13.046;2023-07-30T11:01:52;16.42;;;15.52;;
30466;SDS011;17258;52.560;13.046;2023-07-30T11:11:56;16.42;;;15.13;;
30466;SDS011;17258;52.560;13.046;2023-07-30T11:21:57;16.27;;;15.20;;
30466;SDS011;17258;52.560;13.046;2023-07-30T11:31:58;17.17;;;16.17;;
30466;SDS011;17258;52.560;13.046;2023-07-30T11:42:02;16.98;;;15.98;;
30466;SDS011;17258;52.560;13.046;2023-07-30T11:52:09;16.85;;;15.85;;
30466;SDS011;17258;52.560;13.046;2023-07-30T12:02:16;17.15;;;16.08;;
30466;SDS011;17258;52.560;13.046;2023-07-30T12:12:19;17.67;;;16.58;;
30466;SDS011;17258;52.560;13.046;2023-07-30T12:22:25;18.60;;;17.40;;
30466;SDS011;17258;52.560;13.046;2023-07-30T12:32:25;18.13;;;17.03;;
30466;SDS011;17258;52.560;13.046;2023-07-30T12:42:28;18.17;;;17.08;;
30466;SDS011;17258;52.560;13.046;2023-07-30T12:52:29;18.27;;;17.08;;
30466;SDS011;17258;52.560;13.046;2023-07-30T13:02:32;17.38;;;16.27;;
30466;SDS011;17258;52.560;13.046;2023-07-30T13:12:34;18.17;;;16.60;;
30466;SDS011;17258;52.560;13.046;2023-07-30T13:22:35;17.80;;;16.70;;
30466;SDS011;17258;52.560;13.046;2023-07-30T13:32:36;17.37;;;16.37;;
30466;SDS011;17258;52.560;13.046;2023-07-30T13:42:37;18.10;;;16.90;;
30466;SDS011;17258;52.560;13.046;2023-07-30T13:52:37;17.23;;;16.23;;
30466;SDS011;17258;52.560;13.046;2023-07-30T14:02:38;17.67;;;16.67;;
30466;SDS011;17258;52.560;13.046;2023-07-30T14:12:39;17.87;;;16.60;;
30466;SDS011;17258;52.560;13.046;2023-07-30T14:22:39;16.63;;;15.63;;
30466;SDS011;17258;52.560;13.046;2023-07-30T14:32:40;16.57;;;15.67;;
30466;SDS011;17258;52.560;13.046;2023-07-30T14:42:41;9.80;;;9.30;;
30466;SDS011;17258;52.560;13.046;2023-07-30T14:52:41;15.33;;;14.43;;
30466;SDS011;17258;52.560;13.046;2023-07-30T15:02:42;15.47;;;14.57;;
30466;SDS011;17258;52.560;13.046;2023-07-30T15:12:44;17.15;;;16.02;;
30466;SDS011;17258;52.560;13.046;2023-07-30T15:22:45;15.70;;;14.80;;
30466;SDS011;17258;52.560;13.046;2023-07-30T15:32:45;15.57;;;14.67;;
30466;SDS011;17258;52.560;13.046;2023-07-30T15:42:47;15.52;;;14.73;;
30466;SDS011;17258;52.560;13.046;2023-07-30T15:52:47;15.00;;;14.10;;
30466;SDS011;17258;52.560;13.046;2023-07-30T16:02:48;11.95;;;11.35;;
30466;SDS011;17258;52.560;13.046;2023-07-30T16:12:50;14.93;;;14.13;;
30466;SDS011;17258;52.560;13.046;2023-07-30T16:22:51;16.03;;;15.10;;
30466;SDS011;17258;52.560;13.046;2023-07-30T16:32:51;15.90;;;14.98;;
30466;SDS011;17258;52.560;13.046;2023-07-30T16:42:52;15.33;;;14.43;;
30466;SDS011;17258;52.560;13.046;2023-07-30T16:52:53;17.13;;;15.80;;
30466;SDS011;17258;52.560;13.046;2023-07-30T17:02:53;16.67;;;15.50;;
30466;SDS011;17258;52.560;13.046;2023-07-30T17:12:56;14.80;;;13.90;;
30466;SDS011;17258;52.560;13.046;2023-07-30T17:22:56;13.63;;;12.77;;
30466;SDS011;17258;52.560;13.046;2023-07-30T17:32:57;11.90;;;11.13;;
30466;SDS011;17258;52.560;13.046;2023-07-30T17:42:58;5.50;;;5.20;;
30466;SDS011;17258;52.560;13.046;2023-07-30T17:52:59;1.52;;;1.15;;
30466;SDS011;17258;52.560;13.046;2023-07-30T18:03:00;2.08;;;1.92;;
30466;SDS011;17258;52.560;13.046;2023-07-30T18:13:00;2.23;;;1.30;;
30466;SDS011;17258;52.560;13.046;2023-07-30T18:23:02;1.50;;;1.40;;
30466;SDS011;17258;52.560;13.046;2023-07-30T18:33:03;1.27;;;1.17;;
30466;SDS011;17258;52.560;13.046;2023-07-30T18:43:04;2.08;;;1.40;;
30466;SDS011;17258;52.560;13.046;2023-07-30T18:53:05;2.63;;;1.50;;
30466;SDS011;17258;52.560;13.046;2023-07-30T19:03:06;2.07;;;1.70;;
30466;SDS011;17258;52.560;13.046;2023-07-30T19:13:06;2.47;;;1.73;;
30466;SDS011;17258;52.560;13.046;2023-07-30T19:23:07;2.17;;;1.67;;
30466;SDS011;17258;52.560;13.046;2023-07-30T19:33:08;1.50;;;1.40;;
30466;SDS011;17258;52.560;13.046;2023-07-30T19:43:09;5.82;;;1.77;;
30466;SDS011;17258;52.560;13.046;2023-07-30T19:53:09;1.53;;;1.43;;
30466;SDS011;17258;52.560;13.046;2023-07-30T20:03:10;4.20;;;1.75;;
30466;SDS011;17258;52.560;13.046;2023-07-30T20:13:11;1.63;;;1.53;;
30466;SDS011;17258;52.560;13.046;2023-07-30T20:23:12;2.38;;;1.73;;
30466;SDS011;17258;52.560;13.046;2023-07-30T20:33:12;1.77;;;1.58;;
30466;SDS011;17258;52.560;13.046;2023-07-30T20:43:13;2.33;;;1.88;;
30466;SDS011;17258;52.560;13.046;2023-07-30T20:53:14;1.83;;;1.73;;
30466;SDS011;17258;52.560;13.046;2023-07-30T21:03:14;1.60;;;1.42;;
30466;SDS011;17258;52.560;13.046;2023-07-30T21:13:15;2.92;;;2.05;;
30466;SDS011;17258;52.560;13.046;2023-07-30T21:23:16;2.43;;;1.40;;
30466;SDS011;17258;52.560;13.046;2023-07-30T21:33:17;5.30;;;1.60;;
30466;SDS011;17258;52.560;13.046;2023-07-30T21:43:18;2.30;;;1.02;;
30466;SDS011;17258;52.560;13.046;2023-07-30T21:53:19;1.58;;;1.05;;
30466;SDS011;17258;52.560;13.046;2023-07-30T22:03:20;1.40;;;0.90;;
30466;SDS011;17258;52.560;13.046;2023-07-30T22:13:21;1.10;;;1.00;;
30466;SDS011;17258;52.560;13.046;2023-07-30T22:23:22;1.08;;;0.95;;
30466;SDS011;17258;52.560;13.046;2023-07-30T22:33:22;0.70;;;0.70;;
30466;SDS011;17258;52.560;13.046;2023-07-30T22:43:23;1.40;;;1.10;;
30466;SDS011;17258;52.560;13.046;2023-07-30T22:53:25;0.70;;;0.70;;
30466;SDS011;17258;52.560;13.046;2023-07-30T23:03:25;1.00;;;0.90;;
30466;SDS011;17258;52.560;13.046;2023-07-30T23:13:26;3.57;;;0.87;;
30466;SDS011;17258;52.560;13.046;2023-07-30T23:23:27;1.23;;;1.13;;
30466;SDS011;17258;52.560;13.046;2023-07-30T23:33:27;5.50;;;1.27;;
30466;SDS011;17258;52.560;13.046;2023-07-30T23:43:28;0.97;;;0.80;;
30466;SDS011;17258;52.560;13.046;2023-07-30T23:53:30;1.85;;;0.80;;
